Detall de PIREP

Printer-friendly versionPDF version

[2014/12/14 08:39:00]
Flight IATA:CT3204
Pilot Number:012
Company ICAO:CAT
Aircraft Type:B738/F
PAX:137
Departing Airport: LEPA
Destination Airport: EDDT
Alternate Airport:EDDV
Online: VATSIM
Route:MEROS UN853 LUMAS UT16 ADITA UN870 MAXIR UN853 MOBLO UZ662 LAMUR UZ67 KORED UN871 DITON T163 ZUE T125 ROMIR UN851 LOHRE UN746 ROBEL T200 RUDAK
Flight Level:F380
No Slew and time accel
No pause
Crash detect
Detect pilot in Cockpit between each 30 and 45 minutes
08:39 Zero fuel Weight: 117741 Lbs, Fuel Weight: 19991 Lbs
08:39 VATSIM:LEPA 140800Z VRB02KT 9999 FEW028 11/10 Q1016 NOSIG
08:39 VATSIM:EDDT 140820Z 30002KT 5000 BR FEW003 BKN004 03/02 Q1016 BECMG BKN005
08:40 Parking Brakes off
08:45 Take-off
08:45 Take off Weight: 137081 Lbs
08:45 Wind: 359º @ 001 Knots Heading: 239º
08:45 POS N39º 33´ 13´´ E002º 43´ 27´´
08:45 Gear Up: 161 Knots
08:45 Flaps:3 at 161 Knots
08:46 Flaps:2 at 176 Knots
08:46 Flaps:1 at 191 Knots
08:46 Flaps:0 at 193 Knots
09:00 Wind:223º@048 Knots Heading: 029º Ground Speed: 516 Knots Altitude 30009 ft
09:07 TOC
09:07 Fuel Weight: 15316 Lb
09:15 Wind:240º@065 Knots Heading: 018º Ground Speed: 506 Knots Altitude 38113 ft
09:30 Wind:244º@063 Knots Heading: 021º Ground Speed: 501 Knots Altitude 38156 ft
09:45 Wind:240º@058 Knots Heading: 015º Ground Speed: 495 Knots Altitude 38156 ft
10:00 Wind:248º@046 Knots Heading: 046º Ground Speed: 497 Knots Altitude 38123 ft
10:15 Wind:256º@049 Knots Heading: 359º Ground Speed: 466 Knots Altitude 38103 ft
10:30 Wind:254º@047 Knots Heading: 058º Ground Speed: 490 Knots Altitude 38106 ft
10:35 TOD
10:35 Fuel Weight: 7831 Lb
10:45 Wind:261º@027 Knots Heading: 057º Ground Speed: 395 Knots Altitude 16830 ft
10:52 Flaps:1 at 233 Knots
10:56 Flaps:0 at 247 Knots
11:00 Wind:261º@002 Knots Heading: 259º Ground Speed: 243 Knots Altitude 4071 ft
11:02 Flaps:1 at 209 Knots
11:02 Flaps:2 at 199 Knots
11:02 Flaps:3 at 196 Knots
11:03 Flaps:4 at 189 Knots
11:03 Gear Down: 188 Knots
11:04 Flaps:5 at 182 Knots
11:04 Flaps:6 at 170 Knots
11:04 Flaps:7 at 157 Knots
11:04 Flaps:8 at 157 Knots
11:07 TouchDown:Rate -249 ft/min Speed: 121 Knots
11:07 Flaps:3 at 41 Knots
11:07 VATSIM:EDDT 141050Z 22004KT 8000 FEW003 BKN004 03/02 Q1016 BECMG BKN005
11:07 Land
11:07 Wind:356º@003 Knots
11:07 Heading: 255º
11:07 Flight Duration: 02:22
11:07 Landing Weight: 123864 Lbs
11:07 POS N52º 33´ 36´´ E013º 17´ 30´´
11:22 Parking brakes on
11:22 Block to Block Duration: 02:42
11:22 Final Fuel: 5436 Lbls
11:22 Spent Fuel: 14554 Lbls
11:22 Flight Length: 1040 NM
11:22 TOD Land Length: 167 NM

Exportar CSV

Powered by Drupal - Modified by Danger4k